Time;durP1;ratioP1;P1;durP2;ratioP2;P2;SDS_P1;SDS_P2;PMS_P1;PMS_P2;Temp;Humidity;BMP_temperature;BMP_pressure;BME280_temperature;BME280_humidity;BME280_pressure;Samples;Min_cycle;Max_cycle;Signal;HPM_P1;HPM_P2
2022/10/19 00:00:34;;;;;;;1.58;1.45;;;14.60;98.00;;;;;;5038669;28;20441;-70
2022/10/19 00:03:09;;;;;;;0.80;0.73;;;14.60;98.00;;;;;;5038717;28;20064;-71
2022/10/19 00:05:44;;;;;;;2.00;1.70;;;14.60;98.00;;;;;;5020939;28;20017;-72
2022/10/19 00:08:10;;;;;;;2.23;1.80;;;14.60;98.00;;;;;;5038689;28;20018;-71
2022/10/19 00:10:45;;;;;;;1.15;0.77;;;14.60;98.00;;;;;;5054004;28;20032;-71
2022/10/19 00:13:20;;;;;;;2.17;1.87;;;14.60;98.00;;;;;;5038567;28;20017;-70
2022/10/19 00:15:55;;;;;;;1.20;1.10;;;14.60;98.00;;;;;;5038478;28;20361;-70
2022/10/19 00:18:21;;;;;;;1.43;1.20;;;14.60;98.00;;;;;;5021009;28;20076;-71
2022/10/19 00:21:08;;;;;;;1.90;1.23;;;14.60;98.00;;;;;;5038510;28;20030;-71
2022/10/19 00:23:44;;;;;;;1.35;1.02;;;14.60;98.00;;;;;;5037509;28;20025;-71
2022/10/19 00:26:19;;;;;;;;;;;14.50;98.00;;;;;;5038662;28;20021;-71
2022/10/19 00:28:44;;;;;;;1.83;1.42;;;14.50;98.00;;;;;;5038477;28;20293;-71
2022/10/19 00:31:26;;;;;;;2.67;1.85;;;14.40;98.00;;;;;;5038259;28;20084;-71
2022/10/19 00:34:01;;;;;;;1.20;1.10;;;14.40;98.00;;;;;;5038303;28;20108;-71
2022/10/19 00:39:48;;;;;;;0.80;0.73;;;14.40;98.00;;;;;;5038326;28;20064;-70
2022/10/19 00:42:23;;;;;;;1.30;0.95;;;14.50;98.00;;;;;;5037938;28;20375;-71
2022/10/19 00:45:10;;;;;;;0.50;0.50;;;14.50;98.00;;;;;;5036873;28;20018;-71
2022/10/19 00:47:36;;;;;;;1.08;0.68;;;14.40;98.00;;;;;;5020379;28;20022;-70
2022/10/19 00:50:13;;;;;;;1.10;0.90;;;14.40;98.00;;;;;;5036739;28;20030;-71
2022/10/19 00:52:58;;;;;;;0.80;0.77;;;14.40;98.00;;;;;;5037301;28;20095;-72
2022/10/19 00:55:33;;;;;;;1.00;0.93;;;14.50;98.00;;;;;;5037678;28;20362;-73
2022/10/19 00:58:01;;;;;;;1.30;1.23;;;14.50;98.00;;;;;;5037761;28;20025;-72
2022/10/19 01:00:42;;;;;;;0.70;0.68;;;14.60;98.00;;;;;;5037592;28;20022;-70
2022/10/19 01:03:17;;;;;;;0.63;0.63;;;14.60;98.00;;;;;;5053219;28;20378;-71
2022/10/19 01:05:52;;;;;;;2.45;1.52;;;14.50;98.00;;;;;;5036538;28;20017;-71
2022/10/19 01:08:19;;;;;;;1.37;0.77;;;14.50;98.00;;;;;;5037694;28;20333;-71
2022/10/19 01:11:31;;;;;;;2.75;1.10;;;14.50;98.00;;;;;;5052846;28;20032;-71
2022/10/19 01:17:33;;;;;;;1.25;1.15;;;14.50;98.00;;;;;;5037688;28;20099;-71
2022/10/19 01:20:42;;;;;;;1.17;1.00;;;14.50;98.00;;;;;;5030592;28;20032;-71
2022/10/19 01:23:35;;;;;;;1.90;0.90;;;14.50;98.00;;;;;;5037310;28;20352;-71
2022/10/19 01:26:57;;;;;;;0.98;0.82;;;14.50;98.00;;;;;;5037050;28;20087;-70
2022/10/19 01:30:00;;;;;;;1.25;0.70;;;14.60;98.00;;;;;;5036860;28;20406;-71
2022/10/19 01:33:06;;;;;;;1.15;1.02;;;14.60;98.00;;;;;;5036951;28;20083;-72
2022/10/19 01:36:05;;;;;;;1.05;0.77;;;14.60;98.00;;;;;;5036877;28;20305;-70
2022/10/19 01:38:43;;;;;;;0.88;0.88;;;14.60;97.80;;;;;;5035843;28;20083;-71
2022/10/19 01:41:59;;;;;;;1.48;1.05;;;14.70;97.80;;;;;;5036907;28;20025;-71
2022/10/19 01:44:47;;;;;;;2.22;1.50;;;14.70;97.30;;;;;;5036848;28;20025;-70
2022/10/19 01:47:35;;;;;;;0.75;0.75;;;14.80;96.70;;;;;;5052355;28;20398;-71
2022/10/19 01:50:24;;;;;;;1.80;1.15;;;14.80;95.80;;;;;;5036808;28;20017;-72
2022/10/19 01:53:50;;;;;;;0.60;0.60;;;14.70;95.10;;;;;;5035033;28;20052;-73
2022/10/19 02:00:56;;;;;;;0.20;0.20;;;14.70;95.90;;;;;;5037080;28;20116;-73
2022/10/19 02:03:47;;;;;;;1.20;1.10;;;14.60;96.40;;;;;;5036592;28;20030;-73
2022/10/19 02:09:35;;;;;;;0.40;0.40;;;14.60;96.10;;;;;;5036650;28;20032;-72
2022/10/19 02:12:11;;;;;;;0.80;0.73;;;14.50;96.40;;;;;;5036414;28;20013;-71
2022/10/19 02:14:47;;;;;;;;;;;14.60;96.80;;;;;;5035926;28;20032;-71
2022/10/19 02:17:17;;;;;;;1.10;1.00;;;14.60;97.10;;;;;;5018748;28;19905;-72
2022/10/19 02:19:55;;;;;;;1.45;0.80;;;14.60;97.50;;;;;;5036460;28;20029;-72
2022/10/19 02:22:30;;;;;;;0.73;0.68;;;14.50;97.20;;;;;;5036322;28;20030;-70
2022/10/19 02:25:07;;;;;;;0.93;0.55;;;14.60;96.20;;;;;;5036373;28;20018;-70
2022/10/19 02:27:33;;;;;;;0.30;0.30;;;14.60;96.00;;;;;;5036238;28;20028;-70
2022/10/19 02:30:18;;;;;;;0.75;0.70;;;14.60;95.80;;;;;;5036361;28;20025;-70
2022/10/19 02:32:54;;;;;;;0.93;0.82;;;14.60;96.10;;;;;;5035142;28;20022;-70
2022/10/19 02:35:28;;;;;;;1.08;0.98;;;14.60;95.40;;;;;;5036358;28;20071;-70
2022/10/19 02:38:00;;;;;;;1.08;0.98;;;14.70;95.10;;;;;;5036266;28;20390;-72
2022/10/19 02:40:40;;;;;;;0.60;0.47;;;14.80;94.50;;;;;;5036175;28;20145;-71
2022/10/19 02:43:22;;;;;;;0.65;0.52;;;14.80;94.10;;;;;;5036212;28;20037;-71
2022/10/19 02:49:20;;;;;;;0.63;0.63;;;14.90;93.80;;;;;;5036356;28;20456;-71
2022/10/19 02:52:13;;;;;;;1.15;0.70;;;14.90;93.30;;;;;;5036147;28;20026;-72
2022/10/19 02:54:48;;;;;;;0.43;0.43;;;15.10;91.50;;;;;;5036138;28;20025;-71
2022/10/19 02:57:19;;;;;;;0.55;0.45;;;15.30;91.10;;;;;;5035028;28;20128;-71
2022/10/19 02:59:57;;;;;;;0.35;0.35;;;15.40;90.30;;;;;;5034976;28;20409;-71
2022/10/19 03:02:32;;;;;;;1.10;1.00;;;15.50;90.70;;;;;;5036080;28;20076;-71
2022/10/19 03:05:08;;;;;;;0.10;0.10;;;15.50;89.60;;;;;;5036079;28;20025;-70
2022/10/19 03:07:34;;;;;;;0.82;0.55;;;15.60;90.40;;;;;;5035844;28;20261;-73
2022/10/19 03:10:15;;;;;;;1.27;0.65;;;15.50;90.10;;;;;;5035908;28;20129;-71
2022/10/19 03:12:50;;;;;;;0.35;0.35;;;15.60;89.50;;;;;;5034792;28;20029;-71
2022/10/19 03:18:38;;;;;;;1.40;0.70;;;15.60;90.00;;;;;;5036373;28;20028;-71
2022/10/19 03:21:13;;;;;;;0.60;0.60;;;15.60;90.10;;;;;;5035827;28;20370;-71
2022/10/19 03:23:47;;;;;;;0.30;0.22;;;15.50;90.80;;;;;;5035870;28;20013;-70
2022/10/19 03:29:35;;;;;;;1.08;0.93;;;15.40;91.80;;;;;;5037537;28;20028;-70
2022/10/19 03:32:12;;;;;;;0.55;0.40;;;15.30;91.80;;;;;;5039299;28;20394;-71
2022/10/19 03:34:47;;;;;;;0.63;0.60;;;15.20;92.10;;;;;;5039298;28;20022;-71
2022/10/19 03:37:14;;;;;;;0.40;0.40;;;15.10;92.30;;;;;;5039227;28;20152;-71
2022/10/19 03:39:58;;;;;;;0.22;0.15;;;15.10;92.80;;;;;;5039331;28;20025;-70
2022/10/19 03:42:32;;;;;;;0.73;0.68;;;15.00;92.70;;;;;;5039121;28;20079;-70
2022/10/19 03:45:08;;;;;;;1.35;0.63;;;15.00;92.30;;;;;;5021488;28;20048;-71
2022/10/19 03:47:33;;;;;;;0.60;0.60;;;15.00;92.20;;;;;;5038934;28;20025;-72
2022/10/19 03:50:18;;;;;;;0.30;0.25;;;15.00;91.80;;;;;;5021700;28;20044;-71
2022/10/19 03:53:43;;;;;;;0.50;0.50;;;15.00;92.00;;;;;;5038488;28;20053;-72
2022/10/19 03:59:43;;;;;;;0.50;0.47;;;14.90;92.90;;;;;;5039133;28;20349;-70
2022/10/19 04:02:21;;;;;;;1.05;0.93;;;14.90;93.60;;;;;;5038742;28;20030;-71
2022/10/19 04:08:08;;;;;;;0.50;0.50;;;14.80;94.00;;;;;;5039046;28;20031;-70
2022/10/19 04:10:43;;;;;;;0.47;0.35;;;14.80;93.70;;;;;;5038486;28;20021;-70
2022/10/19 04:13:17;;;;;;;0.73;0.55;;;14.80;93.70;;;;;;5038662;28;20075;-70
2022/10/19 04:19:15;;;;;;;14.52;2.47;;;14.90;93.00;;;;;;5038791;28;20120;-70
2022/10/19 04:21:50;;;;;;;0.50;0.47;;;15.00;92.70;;;;;;5038436;28;20309;-70
2022/10/19 04:24:26;;;;;;;0.75;0.55;;;15.00;92.40;;;;;;5037331;28;20113;-70
2022/10/19 04:26:53;;;;;;;0.20;0.13;;;15.00;92.40;;;;;;5037221;28;20025;-70
2022/10/19 04:29:28;;;;;;;0.40;0.30;;;15.00;92.00;;;;;;5038185;28;20044;-70
2022/10/19 04:32:03;;;;;;;0.70;0.70;;;15.00;92.40;;;;;;5038221;28;20101;-71
2022/10/19 04:34:37;;;;;;;1.02;0.52;;;14.90;93.50;;;;;;5038139;28;20352;-70
2022/10/19 04:37:03;;;;;;;9.48;3.30;;;14.90;93.50;;;;;;5037010;28;20021;-71
2022/10/19 04:39:47;;;;;;;0.55;0.55;;;14.90;93.00;;;;;;5053688;28;20033;-70
2022/10/19 04:42:22;;;;;;;0.57;0.40;;;14.90;92.90;;;;;;5037980;28;20352;-71
2022/10/19 04:48:10;;;;;;;0.25;0.20;;;15.00;90.70;;;;;;5038354;28;20071;-70
2022/10/19 04:50:45;;;;;;;0.40;0.30;;;15.20;87.20;;;;;;5053311;28;20352;-71
2022/10/19 04:53:20;;;;;;;0.87;0.63;;;15.50;86.50;;;;;;5053027;28;20042;-71
2022/10/19 04:59:08;;;;;;;0.60;0.47;;;16.00;85.00;;;;;;5038085;28;20348;-71
2022/10/19 05:01:46;;;;;;;0.47;0.43;;;16.20;84.00;;;;;;5037617;28;20026;-71
2022/10/19 05:04:21;;;;;;;0.40;0.40;;;16.40;83.00;;;;;;5037784;28;20080;-71
2022/10/19 05:06:46;;;;;;;0.17;0.17;;;16.50;82.20;;;;;;5037553;28;20033;-73
2022/10/19 05:09:31;;;;;;;0.35;0.30;;;16.70;81.90;;;;;;5037526;28;20018;-70
2022/10/19 05:12:05;;;;;;;0.10;0.10;;;16.60;82.10;;;;;;5037623;28;20029;-71
2022/10/19 05:14:40;;;;;;;0.20;0.20;;;16.50;82.70;;;;;;5036341;28;20014;-71
2022/10/19 05:17:06;;;;;;;0.53;0.53;;;16.40;83.20;;;;;;5037345;28;20028;-71
2022/10/19 05:19:50;;;;;;;0.85;0.50;;;16.50;81.20;;;;;;5037299;28;20548;-71
2022/10/19 05:22:25;;;;;;;0.40;0.30;;;16.70;81.20;;;;;;5037354;28;20032;-71
2022/10/19 05:28:12;;;;;;;0.73;0.50;;;16.70;81.20;;;;;;5037591;28;20428;-71
2022/10/19 05:30:47;;;;;;;0.15;0.15;;;16.80;81.20;;;;;;5037096;28;20112;-72
2022/10/19 05:33:22;;;;;;;0.93;0.80;;;16.90;79.80;;;;;;5037167;28;20398;-71
2022/10/19 05:39:23;;;;;;;0.25;0.25;;;17.10;78.90;;;;;;5037313;28;20148;-71
2022/10/19 05:41:58;;;;;;;0.73;0.55;;;17.20;78.50;;;;;;5036934;28;20045;-71
2022/10/19 05:44:33;;;;;;;0.47;0.30;;;17.30;79.20;;;;;;5036925;28;20025;-72
2022/10/19 05:46:59;;;;;;;0.17;0.05;;;17.20;80.40;;;;;;5036965;28;20330;-70
2022/10/19 05:49:34;;;;;;;1.27;0.20;;;17.10;81.40;;;;;;5036778;28;20056;-72
2022/10/19 05:52:09;;;;;;;2.83;1.75;;;17.00;82.60;;;;;;5051997;28;20037;-72
2022/10/19 05:58:16;;;;;;;0.80;0.65;;;16.70;84.70;;;;;;5057036;28;20495;-73
2022/10/19 06:00:56;;;;;;;2.58;0.77;;;16.60;86.10;;;;;;5056574;28;20028;-73
2022/10/19 06:03:31;;;;;;;0.43;0.43;;;16.50;86.50;;;;;;5056611;28;20021;-73
2022/10/19 06:09:18;;;;;;;1.00;0.50;;;16.50;86.30;;;;;;5056737;28;20031;-72
2022/10/19 06:11:56;;;;;;;0.57;0.38;;;16.40;86.80;;;;;;5072222;28;20014;-73
2022/10/19 06:17:44;;;;;;;0.90;0.45;;;16.50;85.20;;;;;;5056598;28;20020;-73
2022/10/19 06:20:19;;;;;;;0.50;0.30;;;16.70;86.10;;;;;;5038729;28;20029;-73
2022/10/19 06:22:53;;;;;;;0.50;0.27;;;16.80;86.20;;;;;;5072130;28;20017;-73
2022/10/19 06:28:43;;;;;;;4.50;1.27;;;16.90;88.30;;;;;;5056443;28;20028;-72
2022/10/19 06:31:18;;;;;;;0.82;0.63;;;16.90;89.10;;;;;;5056261;28;20050;-73
2022/10/19 06:33:52;;;;;;;0.73;0.50;;;16.90;89.50;;;;;;5056247;28;20103;-72
2022/10/19 06:36:29;;;;;;;0.93;0.40;;;17.10;89.50;;;;;;5056068;28;20029;-73
2022/10/19 06:39:04;;;;;;;22.58;1.27;;;17.20;88.50;;;;;;5056275;28;20100;-70
2022/10/19 06:41:38;;;;;;;1.27;0.95;;;17.30;87.60;;;;;;5056147;28;20021;-70
2022/10/19 06:44:13;;;;;;;0.40;0.30;;;17.40;89.10;;;;;;5056209;28;20021;-70
2022/10/19 06:46:39;;;;;;;0.32;0.22;;;17.60;86.20;;;;;;5056166;28;20021;-70
2022/10/19 06:49:23;;;;;;;1.38;1.02;;;17.70;87.00;;;;;;5056121;28;20028;-70
2022/10/19 06:51:58;;;;;;;0.60;0.43;;;17.90;87.70;;;;;;5056155;28;20018;-70
2022/10/19 06:58:00;;;;;;;0.50;0.38;;;18.10;87.00;;;;;;5016824;28;20049;-70
2022/10/19 07:00:35;;;;;;;0.80;0.60;;;18.10;87.50;;;;;;5016266;28;20027;-70
2022/10/19 07:03:10;;;;;;;0.45;0.30;;;18.10;88.30;;;;;;5016345;28;20025;-70
2022/10/19 07:09:10;;;;;;;1.23;0.80;;;18.10;86.10;;;;;;5020348;28;20092;-70
2022/10/19 07:11:45;;;;;;;0.98;0.85;;;18.20;85.40;;;;;;5002459;28;20028;-70
2022/10/19 07:14:23;;;;;;;0.43;0.38;;;18.30;85.20;;;;;;5035500;28;20310;-70
2022/10/19 07:16:51;;;;;;;0.13;0.13;;;18.40;84.50;;;;;;5020177;28;20025;-70
2022/10/19 07:19:29;;;;;;;0.95;0.85;;;18.50;85.20;;;;;;5019743;28;20022;-71
2022/10/19 07:22:04;;;;;;;0.43;0.40;;;18.60;84.50;;;;;;5019768;28;20057;-71
2022/10/19 07:24:41;;;;;;;0.98;0.45;;;18.70;86.20;;;;;;5019696;28;20025;-71
2022/10/19 07:27:07;;;;;;;1.48;1.05;;;18.70;87.90;;;;;;5018809;28;20018;-71
2022/10/19 07:29:51;;;;;;;0.75;0.60;;;18.90;88.60;;;;;;5002167;28;20425;-72
2022/10/19 07:32:28;;;;;;;0.40;0.30;;;19.00;86.20;;;;;;5019604;28;20310;-70
2022/10/19 07:35:03;;;;;;;0.68;0.57;;;19.10;88.30;;;;;;5019512;28;20085;-72
2022/10/19 07:37:28;;;;;;;0.95;0.68;;;19.30;84.60;;;;;;5018489;28;20030;-70
2022/10/19 07:40:10;;;;;;;1.30;1.08;;;19.30;84.80;;;;;;5034994;28;20037;-70
2022/10/19 07:42:45;;;;;;;5.28;2.08;;;19.40;85.80;;;;;;5019391;28;20029;-70
2022/10/19 07:48:33;;;;;;;1.02;0.65;;;19.50;81.90;;;;;;5019471;28;20025;-70
2022/10/19 07:51:20;;;;;;;0.40;0.40;;;19.60;82.20;;;;;;5034876;28;20030;-70
2022/10/19 07:54:22;;;;;;;0.77;0.70;;;19.90;81.90;;;;;;5021780;28;20108;-71
2022/10/19 07:56:48;;;;;;;0.77;0.50;;;20.20;82.00;;;;;;5038904;28;20040;-71
2022/10/19 07:59:32;;;;;;;1.85;0.98;;;20.40;83.60;;;;;;5038976;28;20018;-71
2022/10/19 08:02:18;;;;;;;0.93;0.82;;;20.60;84.10;;;;;;5038926;28;20301;-71
2022/10/19 08:04:53;;;;;;;;;;;20.50;87.00;;;;;;5039291;28;20041;-71
2022/10/19 08:07:19;;;;;;;1.02;0.60;;;20.50;87.00;;;;;;5021289;28;20038;-71
2022/10/19 08:09:54;;;;;;;0.68;0.40;;;20.40;85.00;;;;;;5054324;28;20112;-71
2022/10/19 08:12:29;;;;;;;0.70;0.70;;;20.30;81.10;;;;;;5038679;28;20021;-71
2022/10/19 08:18:17;;;;;;;1.95;0.88;;;20.40;84.60;;;;;;5038598;28;20108;-70
2022/10/19 08:20:51;;;;;;;1.35;0.88;;;20.50;82.30;;;;;;5038539;28;20108;-70
2022/10/19 08:23:26;;;;;;;0.47;0.37;;;20.60;78.80;;;;;;5038515;28;20025;-71
2022/10/19 08:29:23;;;;;;;1.52;1.05;;;21.00;80.50;;;;;;5038551;28;20067;-71
2022/10/19 08:31:58;;;;;;;0.93;0.82;;;21.20;76.30;;;;;;5038347;28;20060;-70
2022/10/19 08:37:46;;;;;;;0.77;0.47;;;21.60;77.20;;;;;;5038579;28;20045;-71
2022/10/19 08:40:29;;;;;;;0.82;0.52;;;22.20;74.70;;;;;;5038220;28;20025;-71
2022/10/19 08:43:37;;;;;;;4.30;0.68;;;22.80;72.90;;;;;;5036998;28;20032;-71
2022/10/19 08:46:40;;;;;;;0.73;0.50;;;23.50;74.90;;;;;;5037915;28;20152;-71
2022/10/19 08:49:29;;;;;;;0.50;0.50;;;23.80;73.40;;;;;;5037942;28;20093;-71
2022/10/19 08:52:13;;;;;;;1.08;0.70;;;23.80;72.40;;;;;;5037954;28;20021;-71
2022/10/19 08:59:05;;;;;;;0.80;0.50;;;23.90;69.70;;;;;;5022904;28;20173;-71
2022/10/19 09:02:08;;;;;;;1.02;0.82;;;24.50;71.70;;;;;;5017935;28;20032;-71
2022/10/19 09:07:55;;;;;;;0.85;0.60;;;26.30;65.50;;;;;;5018162;28;20073;-71
2022/10/19 09:10:42;;;;;;;0.57;0.47;;;27.10;63.00;;;;;;5017715;28;20070;-71
2022/10/19 09:13:43;;;;;;;1.95;1.08;;;27.70;62.00;;;;;;5017720;28;20033;-71
2022/10/19 09:19:40;;;;;;;0.60;0.50;;;28.40;60.50;;;;;;5018074;28;20033;-71
2022/10/19 09:22:36;;;;;;;0.88;0.40;;;28.10;60.50;;;;;;5000321;28;20022;-71
2022/10/19 09:25:19;;;;;;;0.50;0.30;;;28.20;61.30;;;;;;5017434;28;20114;-71
2022/10/19 09:27:47;;;;;;;1.00;0.65;;;28.40;61.50;;;;;;4999457;28;20022;-71
2022/10/19 09:30:26;;;;;;;0.40;0.30;;;28.80;60.00;;;;;;5017706;28;20029;-72
2022/10/19 09:33:23;;;;;;;0.47;0.47;;;28.80;59.70;;;;;;5017427;28;20354;-72
2022/10/19 09:39:25;;;;;;;0.50;0.30;;;29.30;60.80;;;;;;5017594;28;20017;-71
2022/10/19 09:42:35;;;;;;;1.05;0.30;;;29.60;60.50;;;;;;5017297;28;20057;-72
2022/10/19 09:49:02;;;;;;;0.50;0.40;;;30.00;58.60;;;;;;5015662;28;20096;-71
2022/10/19 09:51:40;;;;;;;1.25;0.85;;;29.90;58.00;;;;;;4998741;28;20026;-72
2022/10/19 09:55:23;;;;;;;0.95;0.55;;;29.60;60.10;;;;;;4998629;28;20033;-72
2022/10/19 09:58:47;;;;;;;0.85;0.40;;;29.40;57.60;;;;;;4985076;28;20042;-72
2022/10/19 10:02:03;;;;;;;0.70;0.50;;;29.30;57.80;;;;;;4995533;28;20034;-71
2022/10/19 10:05:27;;;;;;;1.67;1.23;;;29.40;57.80;;;;;;5034736;28;20032;-71
2022/10/19 10:07:54;;;;;;;0.30;0.22;;;29.50;58.50;;;;;;5034946;28;20112;-71
2022/10/19 10:10:50;;;;;;;0.40;0.30;;;29.60;59.70;;;;;;5034650;28;20037;-71
2022/10/19 10:13:26;;;;;;;0.35;0.30;;;29.50;58.30;;;;;;5034676;28;20041;-71
2022/10/19 10:19:15;;;;;;;0.45;0.32;;;29.60;59.00;;;;;;5034645;28;20020;-72
2022/10/19 10:22:03;;;;;;;0.82;0.60;;;29.40;58.90;;;;;;5036415;28;20376;-72
2022/10/19 10:28:02;;;;;;;0.52;0.35;;;29.70;58.90;;;;;;5036992;28;20024;-72
2022/10/19 10:30:40;;;;;;;1.48;0.45;;;29.80;58.10;;;;;;5036313;28;20033;-72
2022/10/19 10:34:04;;;;;;;0.82;0.57;;;29.90;58.40;;;;;;5036417;28;20037;-71
2022/10/19 10:37:32;;;;;;;2.47;0.90;;;29.70;58.00;;;;;;5036546;28;20026;-71
2022/10/19 10:40:57;;;;;;;0.47;0.47;;;29.40;58.00;;;;;;5040315;28;20083;-72
2022/10/19 10:44:01;;;;;;;0.60;0.52;;;29.60;58.80;;;;;;5039359;28;20402;-71
2022/10/19 10:50:05;;;;;;;1.95;0.60;;;29.50;57.90;;;;;;5040412;28;20037;-71
2022/10/19 10:53:04;;;;;;;0.85;0.47;;;29.50;57.90;;;;;;5040116;28;20009;-72
2022/10/19 10:55:39;;;;;;;0.88;0.40;;;29.50;57.40;;;;;;5040028;28;20305;-72
2022/10/19 10:59:05;;;;;;;0.45;0.25;;;29.40;58.10;;;;;;5039977;28;20299;-72
2022/10/19 11:02:31;;;;;;;0.47;0.43;;;29.40;58.30;;;;;;5038407;28;20360;-72
2022/10/19 11:09:01;;;;;;;0.47;0.35;;;29.10;56.80;;;;;;4979317;28;19909;-71
2022/10/19 11:11:42;;;;;;;0.40;0.35;;;28.50;55.50;;;;;;4940424;29;20138;-71
2022/10/19 11:17:35;;;;;;;0.35;0.20;;;28.50;58.60;;;;;;4929825;29;20090;-72
2022/10/19 11:20:14;;;;;;;1.10;0.35;;;28.50;59.80;;;;;;4921413;29;20127;-72
2022/10/19 11:23:22;;;;;;;0.55;0.43;;;28.70;59.80;;;;;;4921476;29;20063;-71
2022/10/19 11:29:51;;;;;;;0.70;0.60;;;28.70;59.00;;;;;;4921451;29;20031;-72
2022/10/19 11:32:46;;;;;;;0.55;0.35;;;28.70;60.80;;;;;;4921130;29;20316;-71
2022/10/19 11:35:48;;;;;;;1.13;0.80;;;28.40;59.80;;;;;;5017021;28;20057;-72
2022/10/19 11:38:38;;;;;;;0.68;0.50;;;28.40;61.90;;;;;;5017541;28;20018;-72
2022/10/19 11:41:44;;;;;;;0.45;0.40;;;28.40;59.50;;;;;;5017789;28;20029;-71
2022/10/19 11:44:26;;;;;;;1.02;0.93;;;28.30;59.00;;;;;;5017474;28;20044;-71
2022/10/19 11:47:00;;;;;;;0.75;0.35;;;28.10;57.70;;;;;;5001086;28;20029;-71
2022/10/19 11:50:03;;;;;;;0.30;0.20;;;28.00;59.90;;;;;;5000307;28;20061;-71
2022/10/19 11:53:05;;;;;;;0.32;0.32;;;27.80;59.60;;;;;;5017526;28;20676;-71
2022/10/19 12:03:23;;;;;;;5.80;0.98;;;27.40;63.80;;;;;;4958799;28;20050;-72
2022/10/19 12:09:43;;;;;;;0.43;0.38;;;26.90;59.00;;;;;;4958863;29;20323;-72
2022/10/19 12:12:42;;;;;;;0.32;0.25;;;26.70;64.10;;;;;;4958671;29;20110;-72
2022/10/19 12:15:40;;;;;;;0.30;0.20;;;26.50;61.00;;;;;;4958667;28;20031;-72
2022/10/19 12:18:55;;;;;;;0.50;0.25;;;26.40;65.50;;;;;;4958690;28;20094;-72
2022/10/19 12:21:43;;;;;;;0.90;0.85;;;26.30;65.50;;;;;;4901506;29;20092;-71
2022/10/19 12:24:28;;;;;;;0.52;0.32;;;26.10;62.60;;;;;;4977782;28;20297;-71
2022/10/19 12:26:54;;;;;;;1.42;0.60;;;26.00;63.80;;;;;;4977935;28;20101;-71
2022/10/19 12:29:36;;;;;;;0.47;0.35;;;26.00;65.40;;;;;;4977702;28;20035;-71
2022/10/19 12:32:15;;;;;;;0.40;0.30;;;25.90;63.60;;;;;;4977713;28;20027;-71
2022/10/19 12:35:02;;;;;;;0.82;0.30;;;25.60;66.30;;;;;;4977529;28;20023;-71
2022/10/19 12:37:40;;;;;;;0.77;0.63;;;25.40;66.50;;;;;;5038304;28;20355;-71
2022/10/19 12:44:09;;;;;;;0.52;0.30;;;25.10;66.30;;;;;;5058300;28;20082;-71
2022/10/19 12:50:08;;;;;;;0.73;0.65;;;25.00;64.50;;;;;;5058039;28;20078;-71
2022/10/19 12:52:52;;;;;;;0.70;0.40;;;24.90;69.70;;;;;;5058077;28;20021;-71
2022/10/19 12:59:00;;;;;;;1.77;0.55;;;24.80;65.90;;;;;;5057769;28;20321;-72
2022/10/19 13:02:15;;;;;;;0.30;0.22;;;24.70;68.20;;;;;;5056688;28;20021;-72
2022/10/19 13:08:05;;;;;;;0.35;0.28;;;24.70;66.00;;;;;;5057925;28;20063;-72
2022/10/19 13:11:18;;;;;;;0.40;0.10;;;24.60;69.50;;;;;;5039979;28;20398;-71
2022/10/19 13:14:03;;;;;;;0.40;0.40;;;24.50;69.10;;;;;;5035668;28;20071;-71
2022/10/19 13:20:48;;;;;;;0.52;0.35;;;24.40;66.10;;;;;;5035619;28;20266;-71
2022/10/19 13:23:44;;;;;;;0.38;0.20;;;24.30;70.50;;;;;;5018833;28;20026;-71
2022/10/19 13:26:33;;;;;;;1.77;0.75;;;24.30;67.00;;;;;;5056867;28;20056;-71
2022/10/19 13:29:46;;;;;;;3.83;1.05;;;24.20;71.30;;;;;;5057209;28;20017;-71
2022/10/19 13:32:49;;;;;;;0.75;0.32;;;24.10;69.90;;;;;;5057155;28;20470;-72
2022/10/19 13:38:58;;;;;;;0.85;0.47;;;23.70;70.70;;;;;;5057445;28;20074;-71
2022/10/19 13:42:01;;;;;;;0.98;0.68;;;23.60;69.70;;;;;;5056958;28;20025;-71
2022/10/19 13:44:52;;;;;;;3.70;1.08;;;23.50;70.30;;;;;;5056778;28;20028;-71
2022/10/19 13:47:24;;;;;;;0.73;0.63;;;23.40;69.90;;;;;;5056890;28;20032;-71
2022/10/19 13:53:39;;;;;;;1.23;0.57;;;23.30;70.30;;;;;;5057217;28;20462;-72
2022/10/19 14:03:27;;;;;;;0.98;0.68;;;23.10;70.40;;;;;;5057035;28;20056;-71
2022/10/19 14:09:24;;;;;;;0.93;0.73;;;23.00;71.80;;;;;;5056824;28;20096;-71
2022/10/19 14:12:08;;;;;;;2.80;0.50;;;22.90;73.20;;;;;;5055436;28;20123;-71
2022/10/19 14:17:56;;;;;;;1.40;0.93;;;22.90;70.70;;;;;;5056833;28;20348;-71
2022/10/19 14:20:38;;;;;;;0.98;0.63;;;22.80;72.60;;;;;;5056915;28;20419;-71
2022/10/19 14:23:33;;;;;;;0.50;0.43;;;22.80;72.40;;;;;;5038713;28;20170;-71
2022/10/19 14:29:44;;;;;;;0.65;0.47;;;22.70;71.10;;;;;;5056282;28;20019;-71
2022/10/19 14:32:34;;;;;;;1.80;0.88;;;22.60;72.90;;;;;;5056582;28;20079;-71
2022/10/19 14:38:45;;;;;;;0.57;0.57;;;22.50;71.90;;;;;;5056645;28;20093;-72
2022/10/19 14:41:38;;;;;;;1.67;0.85;;;22.40;73.50;;;;;;5056215;28;20059;-72
2022/10/19 14:47:26;;;;;;;1.58;0.90;;;22.30;74.20;;;;;;5056599;28;20056;-72
2022/10/19 14:50:02;;;;;;;1.42;0.60;;;22.30;74.20;;;;;;5038295;28;20048;-72
2022/10/19 14:53:14;;;;;;;1.58;0.73;;;22.20;75.00;;;;;;5056185;28;20056;-72
2022/10/19 14:59:45;;;;;;;0.60;0.52;;;22.00;73.90;;;;;;5056210;28;20028;-72
2022/10/19 15:02:46;;;;;;;1.55;0.75;;;21.90;74.00;;;;;;5071686;28;20313;-72
2022/10/19 15:05:41;;;;;;;0.77;0.75;;;21.80;75.30;;;;;;5056044;28;20029;-72
2022/10/19 15:08:10;;;;;;;0.98;0.68;;;21.80;74.50;;;;;;5038451;28;20025;-72
2022/10/19 15:10:52;;;;;;;1.73;0.70;;;21.70;75.10;;;;;;5038294;28;20029;-72
2022/10/19 15:13:34;;;;;;;0.88;0.68;;;21.70;75.10;;;;;;5055989;28;20021;-72
2022/10/19 15:19:39;;;;;;;1.27;0.75;;;21.50;77.80;;;;;;5056490;28;20036;-72
2022/10/19 15:22:32;;;;;;;1.60;1.33;;;21.50;78.60;;;;;;5055881;28;20425;-72
2022/10/19 15:28:37;;;;;;;2.72;1.75;;;21.20;80.60;;;;;;5059914;28;20028;-72
2022/10/19 15:31:41;;;;;;;0.47;0.38;;;21.00;81.70;;;;;;5059480;28;20333;-72
2022/10/19 15:34:34;;;;;;;0.93;0.80;;;20.80;82.40;;;;;;5056046;28;20302;-72
2022/10/19 15:37:00;;;;;;;0.52;0.35;;;20.60;82.70;;;;;;5059416;28;20013;-72
2022/10/19 15:39:42;;;;;;;1.38;0.70;;;20.30;82.70;;;;;;5059320;28;20096;-72
2022/10/19 15:42:48;;;;;;;1.35;1.08;;;20.10;83.30;;;;;;5059227;28;20086;-72
2022/10/19 15:48:47;;;;;;;0.63;0.50;;;19.80;84.40;;;;;;5059218;28;20016;-72
2022/10/19 15:51:33;;;;;;;1.55;0.52;;;19.50;85.30;;;;;;5059026;28;20063;-72
2022/10/19 15:54:09;;;;;;;2.63;0.73;;;19.30;85.70;;;;;;5041307;28;20021;-72
2022/10/19 15:56:49;;;;;;;;;;;19.10;85.80;;;;;;5058852;28;20017;-72
2022/10/19 16:03:50;;;;;;;0.80;0.40;;;18.80;86.10;;;;;;5056549;28;20309;-70
2022/10/19 16:07:15;;;;;;;0.85;0.68;;;18.70;85.90;;;;;;5057841;28;20036;-71
2022/10/19 16:10:44;;;;;;;0.90;0.68;;;18.60;86.60;;;;;;5072756;28;20178;-71
2022/10/19 16:14:09;;;;;;;0.50;0.40;;;18.30;87.00;;;;;;5056756;28;20025;-72
2022/10/19 16:21:10;;;;;;;0.73;0.68;;;18.00;87.90;;;;;;5057120;28;20039;-72
2022/10/19 16:24:36;;;;;;;3.65;0.80;;;17.90;88.00;;;;;;5056864;28;20025;-72
2022/10/19 16:27:02;;;;;;;0.63;0.30;;;17.80;88.50;;;;;;5056834;28;20369;-71
2022/10/19 16:29:41;;;;;;;1.13;0.75;;;17.80;89.00;;;;;;5056720;28;20028;-72
2022/10/19 16:32:16;;;;;;;0.63;0.40;;;17.70;88.90;;;;;;5056793;28;20401;-72
2022/10/19 16:34:50;;;;;;;0.82;0.73;;;17.70;89.00;;;;;;5055144;28;20068;-72
2022/10/19 16:37:16;;;;;;;0.80;0.60;;;17.60;89.40;;;;;;5055044;28;20013;-71
2022/10/19 16:40:01;;;;;;;2.72;0.65;;;17.50;89.60;;;;;;5056033;28;20108;-71
2022/10/19 16:42:36;;;;;;;1.35;0.90;;;17.60;89.70;;;;;;5056348;28;20360;-72
2022/10/19 16:45:11;;;;;;;0.68;0.52;;;17.60;89.30;;;;;;5054981;28;20033;-72
2022/10/19 16:47:36;;;;;;;1.13;1.02;;;17.60;89.20;;;;;;5055740;28;20035;-72
2022/10/19 16:50:45;;;;;;;0.70;0.57;;;17.70;89.20;;;;;;5073543;28;20032;-72
2022/10/19 16:53:20;;;;;;;3.92;1.85;;;17.70;89.10;;;;;;5073351;28;20107;-72
2022/10/19 16:59:23;;;;;;;0.75;0.40;;;17.90;88.20;;;;;;5057775;28;20059;-72
2022/10/19 17:01:58;;;;;;;1.88;0.85;;;18.00;88.00;;;;;;5056709;28;20059;-72
2022/10/19 17:07:45;;;;;;;0.82;0.60;;;18.10;88.10;;;;;;5058086;28;20048;-72
2022/10/19 17:10:20;;;;;;;2.72;0.98;;;18.20;88.10;;;;;;5056470;28;20400;-72
2022/10/19 17:12:55;;;;;;;1.13;0.93;;;18.20;88.20;;;;;;5039902;28;20179;-72
2022/10/19 17:18:43;;;;;;;2.15;1.08;;;18.20;88.80;;;;;;5057798;28;20032;-72
2022/10/19 17:21:23;;;;;;;1.42;1.33;;;18.20;89.00;;;;;;5057264;28;20385;-72
2022/10/19 17:24:00;;;;;;;1.15;0.95;;;18.20;89.20;;;;;;5057109;28;20049;-72
2022/10/19 17:26:40;;;;;;;0.63;0.63;;;18.20;89.40;;;;;;5056176;28;20048;-72
2022/10/19 17:29:15;;;;;;;1.58;1.23;;;18.20;89.50;;;;;;5038677;28;20112;-72
2022/10/19 17:31:50;;;;;;;1.13;1.02;;;18.20;89.60;;;;;;5056122;28;20078;-72
2022/10/19 17:34:26;;;;;;;1.00;0.90;;;18.20;89.80;;;;;;5071420;28;20100;-71
2022/10/19 17:36:52;;;;;;;1.10;1.00;;;18.20;90.00;;;;;;5056214;28;20038;-71
2022/10/19 17:39:26;;;;;;;2.95;1.80;;;18.20;90.00;;;;;;5071777;28;20106;-71